Latest Weather Observations for Ferny Creek

IDV60801

Issued at 11:02 pm EST Saturday 30 April 2016 (issued every 30 minutes, with the page automatically refreshed every 10 minutes)

About weather observations | Map of weather stations | Latest weather observations for VIC | Other Formats
Station Details ID: 086266 Name: FERNY CREEK Lat: -37.87 Lon: 145.35 Height: 512.9 m
Data from the previous 72 hours. | See also: Recent months at Ferny Creek
Date/Time
EST
Temp
°C
App
Temp
°C
Dew
Point
Rel
Hum
%
Delta-T
°C
Wind Press
QNH
hPa
Press
MSL
hPa
Rain
since 9 am
mm
Dir
 
Spd
km/h
Gust
km/h
Spd
kts
Gust
kts
30/11:00pm 16.1 13.5 13.2 83 1.7 N 19 39 10 21 1009.2 1008.6 0.0
30/10:30pm 16.6 14.3 13.1 80 2.0 NNE 17 41 9 22 1010.2 1009.6 0.0
30/10:00pm 16.6 15.2 13.3 81 1.9 NNE 13 33 7 18 1010.7 1010.1 0.0
30/09:30pm 16.6 15.1 13.1 80 2.0 N 13 35 7 19 1011.2 1010.6 0.0
30/09:00pm 16.6 15.0 12.9 79 2.1 N 13 32 7 17 1011.3 1010.7 0.0
30/08:30pm 16.7 15.2 13.2 80 2.0 NNE 13 37 7 20 1011.6 1011.0 0.0
30/08:00pm 16.4 15.3 13.1 81 1.9 N 11 20 6 11 1011.7 1011.1 0.0
30/07:30pm 16.4 14.9 13.1 81 1.9 N 13 30 7 16 1011.6 1011.0 0.0
30/07:00pm 16.4 15.6 12.9 80 2.0 N 9 24 5 13 1011.8 1011.2 0.0
30/06:30pm 16.6 15.8 12.8 78 2.2 N 9 20 5 11 1011.8 1011.2 0.0
30/06:00pm 16.7 15.8 12.7 77 2.3 N 9 24 5 13 1011.9 1011.3 0.0
30/05:30pm 17.0 15.8 12.7 76 2.4 N 11 26 6 14 1011.8 1011.2 0.0
30/05:00pm 17.3 16.1 12.8 75 2.6 N 11 24 6 13 1012.0 1011.5 0.0
30/04:30pm 17.6 16.3 12.5 72 2.9 N 11 22 6 12 1012.2 1011.7 0.0
30/04:00pm 17.6 16.2 12.3 71 3.0 N 11 24 6 13 1012.4 1011.9 0.0
30/03:30pm 18.5 17.4 13.1 71 3.1 NNE 11 26 6 14 1012.4 1011.9 0.0
30/03:00pm 18.5 17.7 12.9 70 3.2 N 9 24 5 13 1012.5 1012.0 0.0
30/02:30pm 18.4 17.2 12.8 70 3.2 N 11 26 6 14 1013.0 1012.4 0.0
30/02:00pm 18.4 16.7 12.4 68 3.4 N 13 32 7 17 1013.1 1012.5 0.0
30/01:30pm 17.7 16.5 12.8 73 2.8 N 11 28 6 15 1013.2 1012.6 0.0
30/01:00pm 17.6 16.4 12.7 73 2.8 N 11 26 6 14 1013.4 1012.8 0.0
30/12:30pm 17.7 16.6 13.0 74 2.7 N 11 37 6 20 1013.8 1013.3 0.0
30/12:00pm 17.5 15.8 12.6 73 2.8 N 13 32 7 17 1014.5 1014.0 0.0
30/11:30am 18.5 18.0 13.8 74 2.7 NNE 9 28 5 15 1015.0 1014.4 0.0
30/11:00am 17.0 16.7 13.3 79 2.1 N 7 17 4 9 1015.5 1015.0 0.0
30/10:30am 16.6 16.6 13.5 82 1.8 N 6 15 3 8 1015.6 1015.1 0.0
30/10:00am 16.9 16.1 12.8 77 2.3 N 9 20 5 11 1015.7 1015.2 0.0
30/09:30am 17.3 16.6 13.2 77 2.4 NNE 9 19 5 10 1015.6 1015.1 0.0
30/09:00am 16.6 15.8 12.9 79 2.1 N 9 20 5 11 1015.9 1015.4 13.2
30/08:30am 15.1 14.8 12.6 85 1.4 N 6 15 3 8 1016.0 1015.5 13.0
30/08:00am 15.8 15.4 12.9 83 1.6 NNW 7 19 4 10 1015.8 1015.3 13.0
30/07:30am 15.0 14.7 12.7 86 1.3 N 6 17 3 9 1015.4 1014.9 13.0
30/07:00am 14.4 14.4 12.3 87 1.2 N 4 9 2 5 1015.1 1014.5 13.0
30/06:30am 14.6 14.1 12.5 87 1.2 N 7 24 4 13 1015.1 1014.5 13.0
30/06:00am 14.6 14.2 12.5 87 1.2 N 6 15 3 8 1015.1 1014.5 13.0
30/05:30am 14.8 14.4 12.3 85 1.4 N 6 13 3 7 1015.0 1014.4 13.0
30/05:00am 14.8 14.3 12.5 86 1.3 N 7 15 4 8 1014.8 1014.2 13.0
30/04:30am 14.5 14.0 12.7 89 1.0 N 7 15 4 8 1014.5 1014.0 13.0
30/04:00am 14.4 14.1 12.8 90 0.9 NNW 6 13 3 7 1014.6 1014.1 13.0
30/03:30am 14.3 14.4 12.7 90 0.9 N 4 13 2 7 1014.5 1014.0 13.0
30/03:00am 14.4 14.5 12.8 90 0.9 N 4 9 2 5 1014.8 1014.2 13.0
30/02:30am 14.7 14.5 13.1 90 0.9 N 6 15 3 8 1014.9 1014.3 13.0
30/02:00am 14.6 14.4 13.0 90 0.9 N 6 15 3 8 1015.0 1014.4 13.0
30/01:30am 14.8 14.7 13.2 90 0.9 N 6 20 3 11 1015.0 1014.4 13.0
30/01:00am 14.8 14.3 12.8 88 1.1 N 7 15 4 8 1014.9 1014.3 13.0
30/12:30am 14.8 15.0 13.0 89 1.0 NNE 4 11 2 6 1015.1 1014.5 13.0
30/12:00am 15.0 14.9 13.2 89 1.0 N 6 11 3 6 1015.1 1014.5 13.0
 
Date/Time
EST
Temp
°C
App
Temp
°C
Dew
Point
Rel
Hum
%
Delta-T
°C
Wind Press
QNH
hPa
Press
MSL
hPa
Rain
since 9 am
mm
Dir
 
Spd
km/h
Gust
km/h
Spd
kts
Gust
kts
29/11:30pm 14.9 14.7 13.1 89 1.0 N 6 17 3 9 1015.2 1014.6 13.0
29/11:00pm 15.0 14.7 13.4 90 0.9 N 7 20 4 11 1015.6 1015.1 13.0
29/10:30pm 14.5 14.1 13.0 91 0.8 N 7 17 4 9 1015.7 1015.2 13.0
29/10:00pm 14.6 14.4 13.1 91 0.8 N 6 15 3 8 1015.8 1015.3 13.0
29/09:30pm 14.8 14.5 13.3 91 0.9 NNE 7 17 4 9 1015.9 1015.4 13.0
29/09:00pm 14.8 14.5 13.3 91 0.9 N 7 19 4 10 1015.6 1015.1 13.0
29/08:30pm 14.4 14.0 13.1 92 0.7 N 7 24 4 13 1015.4 1014.9 13.0
29/08:00pm 13.7 13.4 12.6 93 0.6 NNE 6 11 3 6 1015.2 1014.6 12.8
29/07:30pm 14.0 13.8 12.9 93 0.6 N 6 9 3 5 1015.0 1014.4 12.8
29/07:00pm 13.8 13.4 12.5 92 0.7 NNE 6 13 3 7 1014.8 1014.2 12.8
29/06:30pm 13.9 13.6 12.8 93 0.6 N 6 13 3 7 1014.6 1014.1 12.8
29/06:00pm 14.1 13.6 12.8 92 0.7 N 7 15 4 8 1014.4 1013.9 12.8
29/05:30pm 14.1 13.6 12.8 92 0.7 N 7 19 4 10 1014.2 1013.7 12.8
29/05:00pm 14.0 12.9 13.1 94 0.5 NNE 11 28 6 15 1013.7 1013.2 12.8
29/04:30pm 14.0 12.5 13.1 94 0.5 NNE 13 26 7 14 1013.9 1013.4 12.8
29/04:00pm 13.9 13.2 13.1 95 0.5 N 9 19 5 10 1014.2 1013.7 12.6
29/03:30pm 13.8 13.4 13.0 95 0.5 NNE 7 17 4 9 1014.5 1014.0 12.0
29/03:00pm 13.8 13.6 13.0 95 0.5 N 6 13 3 7 1015.0 1014.4 10.6
29/02:30pm 13.8 13.6 13.0 95 0.5 N 6 19 3 10 1015.2 1014.6 9.2
29/02:00pm 13.8 13.6 13.0 95 0.5 N 6 13 3 7 1015.1 1014.5 7.8
29/01:30pm 13.7 13.4 12.6 93 0.6 N 6 17 3 9 1015.0 1014.4 5.6
29/01:00pm 14.0 14.1 12.7 92 0.7 NNW 4 13 2 7 1015.3 1014.7 3.2
29/12:30pm 14.7 14.2 12.2 85 1.4 NNW 6 20 3 11 1015.8 1015.3 1.4
29/12:00pm 15.5 15.0 11.9 79 2.0 N 6 13 3 7 1016.0 1015.5 1.0
29/11:30am 15.4 14.7 12.0 80 1.9 NNW 7 15 4 8 1016.2 1015.7 1.0
29/11:00am 17.3 15.9 10.9 66 3.5 N 9 20 5 11 1016.5 1016.0 0.2
29/10:30am 17.6 16.5 10.7 64 3.8 N 7 22 4 12 1016.2 1015.7 0.2
29/10:00am 17.1 16.2 11.2 68 3.3 N 7 17 4 9 1016.3 1015.8 0.2
29/09:30am 16.3 16.2 10.8 70 3.0 N 2 7 1 4 1016.9 1016.3 0.0
29/09:00am 17.4 16.3 9.8 61 4.1 NNW 6 13 3 7 1016.9 1016.3 0.2
29/08:30am 18.6 16.9 9.7 56 4.8 N 9 22 5 12 1016.7 1016.2 0.2
29/08:00am 18.4 15.4 9.2 55 4.9 NNE 15 35 8 19 1016.1 1015.6 0.2
29/07:30am 17.4 14.5 9.8 61 4.1 NNE 15 32 8 17 1016.3 1015.8 0.2
29/07:00am 17.5 14.2 9.4 59 4.3 NNE 17 41 9 22 1016.3 1015.8 0.0
29/06:30am 19.2 16.1 7.3 46 6.2 NNE 13 28 7 15 1016.1 1015.6 0.0
29/06:00am 19.2 15.7 7.3 46 6.2 NNE 15 30 8 16 1016.3 1015.8 0.0
29/05:30am 19.3 15.8 7.1 45 6.3 NNE 15 30 8 16 1016.5 1016.0 0.0
29/05:00am 19.3 16.2 7.4 46 6.2 NNE 13 28 7 15 1016.6 1016.1 0.0
29/04:30am 19.1 16.0 7.2 46 6.2 NNE 13 35 7 19 1016.6 1016.1 0.0
29/04:00am 19.2 16.1 7.3 46 6.2 NNE 13 26 7 14 1016.6 1016.1 0.0
29/03:30am 19.2 16.2 7.6 47 6.1 NNE 13 26 7 14 1016.5 1016.0 0.0
29/03:00am 18.8 16.2 7.9 49 5.7 NNE 11 28 6 15 1016.7 1016.2 0.0
29/02:30am 19.4 16.8 7.8 47 6.1 N 11 28 6 15 1017.1 1016.6 0.0
29/02:00am 19.6 16.3 8.0 47 6.1 NNE 15 30 8 16 1017.3 1016.8 0.0
29/01:30am 19.3 16.4 8.0 48 6.0 NNE 13 30 7 16 1017.5 1017.0 0.0
29/01:00am 19.6 16.6 7.7 46 6.3 NNE 13 26 7 14 1017.5 1017.0 0.0
29/12:30am 19.8 17.1 7.5 45 6.5 NNE 11 33 6 18 1017.7 1017.2 0.0
29/12:00am 19.8 17.2 7.9 46 6.3 NNE 11 19 6 10 1017.8 1017.3 0.0
 
Date/Time
EST
Temp
°C
App
Temp
°C
Dew
Point
Rel
Hum
%
Delta-T
°C
Wind Press
QNH
hPa
Press
MSL
hPa
Rain
since 9 am
mm
Dir
 
Spd
km/h
Gust
km/h
Spd
kts
Gust
kts
28/11:30pm 19.6 17.7 7.4 45 6.4 N 7 17 4 9 1018.3 1017.8 0.0
28/11:00pm 19.6 18.7 7.7 46 6.2 NNW 2 7 1 4 1018.6 1018.1 0.0
28/10:30pm 19.5 18.2 7.6 46 6.2 N 4 11 2 6 1019.1 1018.6 0.0
28/10:00pm 19.3 18.0 7.7 47 6.1 NNW 4 6 2 3 1019.1 1018.6 0.0
28/09:30pm 18.5 17.6 7.9 50 5.6 NNE 2 6 1 3 1019.1 1018.6 0.0
28/09:00pm 18.8 17.9 7.9 49 5.7 NW 2 9 1 5 1019.1 1018.6 0.0
28/08:30pm 19.4 18.4 7.5 46 6.2 NNW 2 7 1 4 1018.9 1018.4 0.0
28/08:00pm 19.4 18.1 7.8 47 6.1 NNE 4 7 2 4 1018.9 1018.4 0.0
28/07:30pm 19.9 18.6 7.6 45 6.5 NNE 4 7 2 4 1018.9 1018.4 0.0
28/07:00pm 19.6 18.5 8.3 48 6.0 NNE 4 9 2 5 1018.6 1018.1 0.0
28/06:30pm 19.7 18.2 8.4 48 6.0 NE 6 9 3 5 1018.5 1018.0 0.0
28/06:00pm 19.8 18.3 8.5 48 6.0 NNE 6 9 3 5 1018.5 1018.0 0.0
28/05:30pm 19.6 18.2 8.9 50 5.8 NE 6 9 3 5 1018.3 1017.8 0.0
28/05:00pm 19.5 19.3 9.1 51 5.6 CALM 0 0 0 0 1018.4 1017.9 0.0
28/04:30pm 19.9 19.8 9.5 51 5.7 CALM 0 0 0 0 1018.5 1018.0 0.0
28/04:00pm 20.5 20.6 10.3 52 5.6 CALM 0 0 0 0 1018.7 1018.3 0.0
28/03:30pm 20.8 21.2 11.2 54 5.4 CALM 0 2 0 1 1018.9 1018.4 0.0
28/03:00pm 21.6 20.5 8.5 43 7.1 N 4 15 2 8 1019.0 1018.5 0.0
28/02:30pm 21.7 20.7 8.9 44 7.0 NNW 4 9 2 5 1019.0 1018.5 0.0
28/02:00pm 20.9 19.7 9.5 48 6.2 NNW 6 11 3 6 1019.1 1018.6 0.0
28/01:30pm 21.2 19.8 8.8 45 6.7 N 6 13 3 7 1019.1 1018.6 0.0
28/01:00pm 21.2 20.3 9.1 46 6.6 NNW 4 9 2 5 1019.3 1018.8 0.0
28/12:30pm 20.9 19.8 10.1 50 6.0 NNE 6 9 3 5 1019.3 1018.8 0.0
28/12:00pm 19.6 18.3 9.2 51 5.6 NNW 6 20 3 11 1019.9 1019.4 0.0
28/11:30am 19.0 17.7 9.2 53 5.3 N 6 13 3 7 1020.1 1019.6 0.0
28/11:00am 18.9 17.2 8.3 50 5.6 NNW 7 13 4 7 1020.1 1019.6 0.0
28/10:30am 20.9 19.8 10.1 50 6.0 N 6 9 3 5 1020.1 1019.6 0.0
28/10:00am 19.1 17.7 8.7 51 5.5 N 6 11 3 6 1020.3 1019.8 0.0
28/09:30am 19.4 17.6 8.1 48 6.0 NNW 7 22 4 12 1020.1 1019.6 0.0
28/09:00am 19.9 18.7 9.5 51 5.7 NE 6 11 3 6 1020.0 1019.5 0.0
28/08:30am 18.4 17.0 8.9 54 5.1 NNE 6 19 3 10 1019.8 1019.3 0.0
28/08:00am 18.3 16.7 8.6 53 5.1 NNE 7 13 4 7 1019.3 1018.8 0.0
28/07:30am 17.9 16.2 8.2 53 5.1 NNE 7 20 4 11 1018.9 1018.4 0.0
28/07:00am 18.1 16.3 8.1 52 5.2 NNE 7 17 4 9 1018.5 1018.0 0.0
28/06:30am 18.1 16.5 7.8 51 5.4 NNE 6 17 3 9 1018.4 1017.9 0.0
28/06:00am 18.2 16.4 7.9 51 5.4 N 7 19 4 10 1018.4 1017.9 0.0
28/05:30am 18.1 15.9 7.8 51 5.4 NNE 9 22 5 12 1018.2 1017.7 0.0
28/05:00am 18.5 16.2 7.6 49 5.7 NNE 9 24 5 13 1018.1 1017.6 0.0
28/04:30am 18.6 16.4 7.7 49 5.7 N 9 20 5 11 1018.1 1017.6 0.0
28/04:00am 18.7 16.4 7.5 48 5.8 N 9 30 5 16 1018.0 1017.5 0.0
28/03:30am 19.0 16.2 7.1 46 6.2 NNE 11 22 6 12 1017.9 1017.4 0.0
28/03:00am 19.1 16.3 6.9 45 6.3 NNE 11 28 6 15 1017.8 1017.3 0.0
28/02:30am 19.3 15.0 6.8 44 6.5 NNE 19 39 10 21 1017.9 1017.4 0.0
28/02:00am 19.2 15.6 6.7 44 6.4 NNE 15 33 8 18 1017.7 1017.2 0.0
28/01:30am 19.1 15.1 6.6 44 6.4 NNE 17 32 9 17 1017.8 1017.3 0.0
28/01:00am 19.4 15.3 6.2 42 6.7 N 17 35 9 19 1018.1 1017.6 0.0
28/12:30am 19.4 16.1 6.5 43 6.6 NNE 13 28 7 15 1018.2 1017.7 0.0
28/12:00am 19.5 15.8 6.3 42 6.7 NNE 15 35 8 19 1018.2 1017.7 0.0
 
Date/Time
EST
Temp
°C
App
Temp
°C
Dew
Point
Rel
Hum
%
Delta-T
°C
Wind Press
QNH
hPa
Press
MSL
hPa
Rain
since 9 am
mm
Dir
 
Spd
km/h
Gust
km/h
Spd
kts
Gust
kts
27/11:30pm 19.6 15.9 6.4 42 6.8 NNE 15 32 8 17 1018.0 1017.5 0.0

Other Formats:

Comma delimited format used in spreadsheet applications
http://www.bom.gov.au/fwo/IDV60801/IDV60801.94872.axf

JavaScript Object Notation format (JSON) in row-major order
http://www.bom.gov.au/fwo/IDV60801/IDV60801.94872.json